Indialantic, Florida
Current Conditions -  °F | °C
As of 2:53 AM on Friday 31 Oct 2014 (Local Time) from KMLB Reporting Station
Overcast Overcast  
Wind Chill: 21°   Ceiling: 4800
Heat Index: 21°   Visibility: 10mi
Dew Point: 19°   Wind: 3mph
Humidity: 90%   Direction: 160°SSE
Pressure: 29.85"   Gusts: NA
Location:  28.09°N, 80.57°W
Report Text: KMLB 310653Z AUTO 16003KT 10SM BKN048 OVC060 21/19 A2985 RMK AO2 RAE28 SLP106 P0001 T02110194
Loading
Personal Weather Stations






























Interactive Weather Map
Tropical Storm Tracking
New forecast layout! Learn more

10-Day Weather Forecast

Advertisements
Track Severe Weather on mobile